sensor_id;sensor_type;location;lat;lon;timestamp;pressure;altitude;pressure_sealevel;temperature;humidity
48630;BME280;34426;52.180;4.462;2024-01-27T00:02:05;103533.94;;;4.91;100.00
48630;BME280;34426;52.180;4.462;2024-01-27T00:04:30;103532.84;;;4.84;100.00
48630;BME280;34426;52.180;4.462;2024-01-27T00:06:56;103544.09;;;4.74;100.00
48630;BME280;34426;52.180;4.462;2024-01-27T00:09:21;103536.25;;;4.70;100.00
48630;BME280;34426;52.180;4.462;2024-01-27T00:11:47;103535.50;;;4.59;100.00
48630;BME280;34426;52.180;4.462;2024-01-27T00:14:14;103541.28;;;4.48;100.00
48630;BME280;34426;52.180;4.462;2024-01-27T00:16:39;103537.34;;;4.51;100.00
48630;BME280;34426;52.180;4.462;2024-01-27T00:19:04;103536.84;;;4.55;100.00
48630;BME280;34426;52.180;4.462;2024-01-27T00:21:30;103536.47;;;4.50;100.00
48630;BME280;34426;52.180;4.462;2024-01-27T00:23:55;103544.13;;;4.56;100.00
48630;BME280;34426;52.180;4.462;2024-01-27T00:26:21;103541.16;;;4.76;100.00
48630;BME280;34426;52.180;4.462;2024-01-27T00:28:46;103531.41;;;4.72;100.00
48630;BME280;34426;52.180;4.462;2024-01-27T00:31:13;103539.09;;;4.86;100.00
48630;BME280;34426;52.180;4.462;2024-01-27T00:33:38;103549.72;;;4.90;100.00
48630;BME280;34426;52.180;4.462;2024-01-27T00:36:05;103535.69;;;4.92;100.00
48630;BME280;34426;52.180;4.462;2024-01-27T00:38:30;103538.88;;;4.79;100.00
48630;BME280;34426;52.180;4.462;2024-01-27T00:40:56;103552.25;;;4.76;100.00
48630;BME280;34426;52.180;4.462;2024-01-27T00:43:21;103548.88;;;4.64;100.00
48630;BME280;34426;52.180;4.462;2024-01-27T00:45:46;103536.53;;;4.58;100.00
48630;BME280;34426;52.180;4.462;2024-01-27T00:48:13;103531.25;;;4.47;100.00
48630;BME280;34426;52.180;4.462;2024-01-27T00:50:39;103541.88;;;4.34;100.00
48630;BME280;34426;52.180;4.462;2024-01-27T00:53:04;103541.13;;;4.24;100.00
48630;BME280;34426;52.180;4.462;2024-01-27T00:55:29;103547.59;;;4.15;100.00
48630;BME280;34426;52.180;4.462;2024-01-27T00:57:55;103546.50;;;4.08;100.00
48630;BME280;34426;52.180;4.462;2024-01-27T01:00:20;103546.66;;;4.24;100.00
48630;BME280;34426;52.180;4.462;2024-01-27T01:02:46;103544.59;;;4.26;100.00
48630;BME280;34426;52.180;4.462;2024-01-27T01:05:13;103531.47;;;4.28;100.00
48630;BME280;34426;52.180;4.462;2024-01-27T01:07:38;103540.00;;;4.17;100.00
48630;BME280;34426;52.180;4.462;2024-01-27T01:10:05;103542.47;;;4.20;100.00
48630;BME280;34426;52.180;4.462;2024-01-27T01:12:30;103545.94;;;4.22;100.00
48630;BME280;34426;52.180;4.462;2024-01-27T01:14:56;103545.56;;;4.17;100.00
48630;BME280;34426;52.180;4.462;2024-01-27T01:17:21;103548.09;;;4.10;100.00
48630;BME280;34426;52.180;4.462;2024-01-27T01:19:47;103555.28;;;4.03;100.00
48630;BME280;34426;52.180;4.462;2024-01-27T01:22:14;103556.38;;;3.92;100.00
48630;BME280;34426;52.180;4.462;2024-01-27T01:24:39;103554.97;;;3.88;100.00
48630;BME280;34426;52.180;4.462;2024-01-27T01:27:05;103552.81;;;4.00;100.00
48630;BME280;34426;52.180;4.462;2024-01-27T01:29:30;103557.50;;;3.99;100.00
48630;BME280;34426;52.180;4.462;2024-01-27T01:31:55;103546.75;;;3.79;100.00
48630;BME280;34426;52.180;4.462;2024-01-27T01:34:21;103551.72;;;3.75;100.00
48630;BME280;34426;52.180;4.462;2024-01-27T01:36:46;103551.41;;;3.78;100.00
48630;BME280;34426;52.180;4.462;2024-01-27T01:39:13;103555.22;;;3.77;100.00
48630;BME280;34426;52.180;4.462;2024-01-27T01:41:39;103547.94;;;3.76;100.00
48630;BME280;34426;52.180;4.462;2024-01-27T01:44:06;103543.81;;;3.80;100.00
48630;BME280;34426;52.180;4.462;2024-01-27T01:46:31;103552.84;;;3.82;100.00
48630;BME280;34426;52.180;4.462;2024-01-27T01:48:57;103547.31;;;3.82;100.00
48630;BME280;34426;52.180;4.462;2024-01-27T01:51:23;103556.63;;;3.81;100.00
48630;BME280;34426;52.180;4.462;2024-01-27T01:53:51;103557.34;;;3.83;100.00
48630;BME280;34426;52.180;4.462;2024-01-27T01:56:18;103555.94;;;3.79;100.00
48630;BME280;34426;52.180;4.462;2024-01-27T01:58:44;103568.59;;;3.82;100.00
48630;BME280;34426;52.180;4.462;2024-01-27T02:01:10;103571.81;;;3.77;100.00
48630;BME280;34426;52.180;4.462;2024-01-27T02:03:35;103574.81;;;3.66;100.00
48630;BME280;34426;52.180;4.462;2024-01-27T02:06:00;103570.38;;;3.73;100.00
48630;BME280;34426;52.180;4.462;2024-01-27T02:08:26;103566.09;;;3.61;100.00
48630;BME280;34426;52.180;4.462;2024-01-27T02:10:51;103572.34;;;3.63;100.00
48630;BME280;34426;52.180;4.462;2024-01-27T02:13:19;103575.09;;;3.63;100.00
48630;BME280;34426;52.180;4.462;2024-01-27T02:15:45;103584.78;;;3.49;100.00
48630;BME280;34426;52.180;4.462;2024-01-27T02:18:10;103569.06;;;3.50;100.00
48630;BME280;34426;52.180;4.462;2024-01-27T02:20:36;103573.66;;;3.41;100.00
48630;BME280;34426;52.180;4.462;2024-01-27T02:23:01;103571.75;;;3.42;100.00
48630;BME280;34426;52.180;4.462;2024-01-27T02:25:28;103572.69;;;3.32;100.00
48630;BME280;34426;52.180;4.462;2024-01-27T02:27:53;103575.03;;;3.27;100.00
48630;BME280;34426;52.180;4.462;2024-01-27T02:30:19;103563.53;;;3.22;100.00
48630;BME280;34426;52.180;4.462;2024-01-27T02:32:44;103568.25;;;3.12;100.00
48630;BME280;34426;52.180;4.462;2024-01-27T02:35:10;103570.78;;;3.33;100.00
48630;BME280;34426;52.180;4.462;2024-01-27T02:37:35;103567.97;;;3.43;100.00
48630;BME280;34426;52.180;4.462;2024-01-27T02:40:00;103560.38;;;3.45;100.00
48630;BME280;34426;52.180;4.462;2024-01-27T02:42:27;103555.72;;;3.45;100.00
48630;BME280;34426;52.180;4.462;2024-01-27T02:44:53;103557.22;;;3.40;100.00
48630;BME280;34426;52.180;4.462;2024-01-27T02:47:18;103564.41;;;3.50;100.00
48630;BME280;34426;52.180;4.462;2024-01-27T02:49:44;103571.75;;;3.42;100.00
48630;BME280;34426;52.180;4.462;2024-01-27T02:52:09;103576.72;;;3.38;100.00
48630;BME280;34426;52.180;4.462;2024-01-27T02:54:35;103572.69;;;3.32;100.00
48630;BME280;34426;52.180;4.462;2024-01-27T02:57:00;103581.88;;;3.23;100.00
48630;BME280;34426;52.180;4.462;2024-01-27T02:59:27;103585.09;;;3.19;100.00
48630;BME280;34426;52.180;4.462;2024-01-27T03:01:52;103577.34;;;3.32;100.00
48630;BME280;34426;52.180;4.462;2024-01-27T03:04:18;103566.59;;;3.47;100.00
48630;BME280;34426;52.180;4.462;2024-01-27T03:06:43;103572.06;;;3.39;100.00
48630;BME280;34426;52.180;4.462;2024-01-27T03:09:09;103577.94;;;3.53;100.00
48630;BME280;34426;52.180;4.462;2024-01-27T03:11:34;103570.03;;;3.41;100.00
48630;BME280;34426;52.180;4.462;2024-01-27T03:13:59;103569.44;;;3.37;100.00
48630;BME280;34426;52.180;4.462;2024-01-27T03:16:26;103576.13;;;3.44;100.00
48630;BME280;34426;52.180;4.462;2024-01-27T03:18:52;103575.97;;;3.46;100.00
48630;BME280;34426;52.180;4.462;2024-01-27T03:21:17;103581.53;;;3.36;100.00
48630;BME280;34426;52.180;4.462;2024-01-27T03:23:43;103580.50;;;3.37;100.00
48630;BME280;34426;52.180;4.462;2024-01-27T03:26:08;103583.38;;;3.45;100.00
48630;BME280;34426;52.180;4.462;2024-01-27T03:28:34;103569.72;;;3.44;100.00
48630;BME280;34426;52.180;4.462;2024-01-27T03:30:59;103574.41;;;3.33;100.00
48630;BME280;34426;52.180;4.462;2024-01-27T03:33:26;103576.19;;;3.25;100.00
48630;BME280;34426;52.180;4.462;2024-01-27T03:35:52;103582.00;;;3.31;100.00
48630;BME280;34426;52.180;4.462;2024-01-27T03:38:17;103580.38;;;3.39;100.00
48630;BME280;34426;52.180;4.462;2024-01-27T03:40:42;103576.97;;;3.45;100.00
48630;BME280;34426;52.180;4.462;2024-01-27T03:43:08;103563.34;;;3.33;100.00
48630;BME280;34426;52.180;4.462;2024-01-27T03:45:33;103565.09;;;3.34;100.00
48630;BME280;34426;52.180;4.462;2024-01-27T03:47:59;103562.75;;;3.40;100.00
48630;BME280;34426;52.180;4.462;2024-01-27T03:50:26;103565.41;;;3.31;100.00
48630;BME280;34426;52.180;4.462;2024-01-27T03:52:51;103568.63;;;3.27;100.00
48630;BME280;34426;52.180;4.462;2024-01-27T03:55:16;103570.53;;;3.26;100.00
48630;BME280;34426;52.180;4.462;2024-01-27T03:57:42;103571.53;;;3.25;100.00
48630;BME280;34426;52.180;4.462;2024-01-27T04:00:08;103573.31;;;3.17;100.00
48630;BME280;34426;52.180;4.462;2024-01-27T04:02:34;103566.19;;;3.14;100.00
48630;BME280;34426;52.180;4.462;2024-01-27T04:04:59;103569.88;;;3.05;100.00
48630;BME280;34426;52.180;4.462;2024-01-27T04:07:26;103580.25;;;3.03;100.00
48630;BME280;34426;52.180;4.462;2024-01-27T04:09:52;103578.16;;;3.05;100.00
48630;BME280;34426;52.180;4.462;2024-01-27T04:12:17;103580.94;;;3.05;100.00
48630;BME280;34426;52.180;4.462;2024-01-27T04:14:43;103578.09;;;2.97;100.00
48630;BME280;34426;52.180;4.462;2024-01-27T04:17:08;103586.63;;;3.04;100.00
48630;BME280;34426;52.180;4.462;2024-01-27T04:19:34;103577.41;;;3.13;100.00
48630;BME280;34426;52.180;4.462;2024-01-27T04:21:59;103583.81;;;3.13;100.00
48630;BME280;34426;52.180;4.462;2024-01-27T04:24:26;103592.31;;;3.02;100.00
48630;BME280;34426;52.180;4.462;2024-01-27T04:26:51;103590.97;;;3.06;100.00
48630;BME280;34426;52.180;4.462;2024-01-27T04:29:17;103582.44;;;2.99;100.00
48630;BME280;34426;52.180;4.462;2024-01-27T04:31:42;103580.13;;;2.95;100.00
48630;BME280;34426;52.180;4.462;2024-01-27T04:34:08;103581.44;;;2.91;100.00
48630;BME280;34426;52.180;4.462;2024-01-27T04:36:33;103582.19;;;2.83;100.00
48630;BME280;34426;52.180;4.462;2024-01-27T04:38:58;103580.47;;;2.73;100.00
48630;BME280;34426;52.180;4.462;2024-01-27T04:41:25;103573.91;;;2.83;100.00
48630;BME280;34426;52.180;4.462;2024-01-27T04:43:51;103580.59;;;2.81;100.00
48630;BME280;34426;52.180;4.462;2024-01-27T04:46:16;103568.22;;;2.85;100.00
48630;BME280;34426;52.180;4.462;2024-01-27T04:48:42;103576.63;;;2.93;100.00
48630;BME280;34426;52.180;4.462;2024-01-27T04:51:07;103579.09;;;2.96;100.00
48630;BME280;34426;52.180;4.462;2024-01-27T04:53:33;103566.75;;;2.90;100.00
48630;BME280;34426;52.180;4.462;2024-01-27T04:55:58;103573.59;;;2.86;100.00
48630;BME280;34426;52.180;4.462;2024-01-27T04:58:25;103574.63;;;2.76;100.00
48630;BME280;34426;52.180;4.462;2024-01-27T05:00:50;103577.84;;;2.71;100.00
48630;BME280;34426;52.180;4.462;2024-01-27T05:03:16;103579.28;;;2.75;100.00
48630;BME280;34426;52.180;4.462;2024-01-27T05:05:41;103579.31;;;2.65;100.00
48630;BME280;34426;52.180;4.462;2024-01-27T05:08:07;103575.81;;;2.63;100.00
48630;BME280;34426;52.180;4.462;2024-01-27T05:10:32;103577.72;;;2.63;100.00
48630;BME280;34426;52.180;4.462;2024-01-27T05:12:58;103584.84;;;2.65;100.00
48630;BME280;34426;52.180;4.462;2024-01-27T05:15:25;103574.78;;;2.74;100.00
48630;BME280;34426;52.180;4.462;2024-01-27T05:17:50;103589.47;;;2.75;100.00
48630;BME280;34426;52.180;4.462;2024-01-27T05:20:16;103584.53;;;2.68;100.00
48630;BME280;34426;52.180;4.462;2024-01-27T05:22:42;103576.81;;;2.82;100.00
48630;BME280;34426;52.180;4.462;2024-01-27T05:25:07;103586.41;;;2.78;100.00
48630;BME280;34426;52.180;4.462;2024-01-27T05:27:33;103580.75;;;2.70;100.00
48630;BME280;34426;52.180;4.462;2024-01-27T05:29:58;103592.38;;;2.83;100.00
48630;BME280;34426;52.180;4.462;2024-01-27T05:32:25;103594.72;;;2.78;100.00
48630;BME280;34426;52.180;4.462;2024-01-27T05:34:51;103587.88;;;2.82;100.00
48630;BME280;34426;52.180;4.462;2024-01-27T05:37:16;103586.13;;;2.81;100.00
48630;BME280;34426;52.180;4.462;2024-01-27T05:39:41;103599.22;;;2.79;100.00
48630;BME280;34426;52.180;4.462;2024-01-27T05:42:07;103594.41;;;2.81;100.00
48630;BME280;34426;52.180;4.462;2024-01-27T05:44:32;103593.69;;;2.79;100.00
48630;BME280;34426;52.180;4.462;2024-01-27T05:46:58;103597.19;;;2.71;100.00
48630;BME280;34426;52.180;4.462;2024-01-27T05:49:25;103589.19;;;2.78;100.00
48630;BME280;34426;52.180;4.462;2024-01-27T05:51:50;103577.25;;;2.77;100.00
48630;BME280;34426;52.180;4.462;2024-01-27T05:54:15;103579.56;;;2.82;100.00
48630;BME280;34426;52.180;4.462;2024-01-27T05:56:41;103580.16;;;2.76;100.00
48630;BME280;34426;52.180;4.462;2024-01-27T05:59:06;103591.53;;;2.73;100.00
48630;BME280;34426;52.180;4.462;2024-01-27T06:01:32;103585.28;;;2.71;100.00
48630;BME280;34426;52.180;4.462;2024-01-27T06:03:57;103585.47;;;2.59;100.00
48630;BME280;34426;52.180;4.462;2024-01-27T06:06:24;103587.19;;;2.60;100.00
48630;BME280;34426;52.180;4.462;2024-01-27T06:08:50;103574.41;;;2.59;100.00
48630;BME280;34426;52.180;4.462;2024-01-27T06:11:23;103585.75;;;2.56;100.00
48630;BME280;34426;52.180;4.462;2024-01-27T06:13:48;103580.34;;;2.64;100.00
48630;BME280;34426;52.180;4.462;2024-01-27T06:16:14;103567.25;;;2.66;100.00
48630;BME280;34426;52.180;4.462;2024-01-27T06:18:39;103572.91;;;2.75;100.00
48630;BME280;34426;52.180;4.462;2024-01-27T06:21:05;103576.97;;;2.71;100.00
48630;BME280;34426;52.180;4.462;2024-01-27T06:23:32;103574.97;;;2.63;100.00
48630;BME280;34426;52.180;4.462;2024-01-27T06:25:57;103583.72;;;2.58;100.00
48630;BME280;34426;52.180;4.462;2024-01-27T06:28:23;103578.78;;;2.52;100.00
48630;BME280;34426;52.180;4.462;2024-01-27T06:30:48;103585.31;;;2.51;100.00
48630;BME280;34426;52.180;4.462;2024-01-27T06:33:13;103594.50;;;2.42;100.00
48630;BME280;34426;52.180;4.462;2024-01-27T06:35:39;103598.13;;;2.52;100.00
48630;BME280;34426;52.180;4.462;2024-01-27T06:38:04;103603.75;;;2.60;100.00
48630;BME280;34426;52.180;4.462;2024-01-27T06:40:31;103611.66;;;2.55;100.00
48630;BME280;34426;52.180;4.462;2024-01-27T06:42:57;103607.25;;;2.62;100.00
48630;BME280;34426;52.180;4.462;2024-01-27T06:45:22;103616.88;;;2.58;100.00
48630;BME280;34426;52.180;4.462;2024-01-27T06:47:47;103618.91;;;2.56;100.00
48630;BME280;34426;52.180;4.462;2024-01-27T06:50:13;103602.34;;;2.47;100.00
48630;BME280;34426;52.180;4.462;2024-01-27T06:52:38;103608.75;;;2.47;100.00
48630;BME280;34426;52.180;4.462;2024-01-27T06:55:05;103610.19;;;2.51;100.00
48630;BME280;34426;52.180;4.462;2024-01-27T06:57:32;103608.00;;;2.45;100.00
48630;BME280;34426;52.180;4.462;2024-01-27T06:59:57;103601.19;;;2.49;100.00
48630;BME280;34426;52.180;4.462;2024-01-27T07:02:23;103606.25;;;2.54;100.00
48630;BME280;34426;52.180;4.462;2024-01-27T07:04:48;103607.44;;;2.42;100.00
48630;BME280;34426;52.180;4.462;2024-01-27T07:07:13;103615.28;;;2.37;100.00
48630;BME280;34426;52.180;4.462;2024-01-27T07:09:39;103606.84;;;2.38;100.00
48630;BME280;34426;52.180;4.462;2024-01-27T07:12:05;103610.03;;;2.33;100.00
48630;BME280;34426;52.180;4.462;2024-01-27T07:14:32;103599.72;;;2.36;100.00
48630;BME280;34426;52.180;4.462;2024-01-27T07:16:57;103593.03;;;2.38;100.00
48630;BME280;34426;52.180;4.462;2024-01-27T07:19:23;103608.00;;;2.36;100.00
48630;BME280;34426;52.180;4.462;2024-01-27T07:21:48;103613.97;;;2.31;100.00
48630;BME280;34426;52.180;4.462;2024-01-27T07:24:14;103612.66;;;2.35;100.00
48630;BME280;34426;52.180;4.462;2024-01-27T07:26:39;103615.28;;;2.37;100.00
48630;BME280;34426;52.180;4.462;2024-01-27T07:29:05;103605.53;;;2.42;100.00
48630;BME280;34426;52.180;4.462;2024-01-27T07:31:31;103602.06;;;2.40;100.00
48630;BME280;34426;52.180;4.462;2024-01-27T07:33:57;103606.13;;;2.36;100.00
48630;BME280;34426;52.180;4.462;2024-01-27T07:36:22;103610.19;;;2.42;100.00
48630;BME280;34426;52.180;4.462;2024-01-27T07:38:48;103616.44;;;2.34;100.00
48630;BME280;34426;52.180;4.462;2024-01-27T07:41:13;103621.09;;;2.43;100.00
48630;BME280;34426;52.180;4.462;2024-01-27T07:43:38;103615.13;;;2.38;100.00
48630;BME280;34426;52.180;4.462;2024-01-27T07:46:04;103611.78;;;2.34;100.00
48630;BME280;34426;52.180;4.462;2024-01-27T07:48:31;103611.94;;;2.43;100.00
48630;BME280;34426;52.180;4.462;2024-01-27T07:50:56;103602.78;;;2.42;100.00
48630;BME280;34426;52.180;4.462;2024-01-27T07:53:21;103603.50;;;2.44;100.00
48630;BME280;34426;52.180;4.462;2024-01-27T07:55:47;103594.94;;;2.47;100.00
48630;BME280;34426;52.180;4.462;2024-01-27T07:58:12;103604.06;;;2.57;100.00
48630;BME280;34426;52.180;4.462;2024-01-27T08:00:38;103600.44;;;2.57;100.00
48630;BME280;34426;52.180;4.462;2024-01-27T08:03:04;103610.16;;;2.61;100.00
48630;BME280;34426;52.180;4.462;2024-01-27T08:05:30;103613.69;;;2.53;100.00
48630;BME280;34426;52.180;4.462;2024-01-27T08:07:56;103625.03;;;2.50;100.00
48630;BME280;34426;52.180;4.462;2024-01-27T08:10:22;103612.81;;;2.43;100.00
48630;BME280;34426;52.180;4.462;2024-01-27T08:12:47;103607.13;;;2.54;100.00
48630;BME280;34426;52.180;4.462;2024-01-27T08:15:13;103613.38;;;2.56;100.00
48630;BME280;34426;52.180;4.462;2024-01-27T08:17:38;103608.97;;;2.63;100.00
48630;BME280;34426;52.180;4.462;2024-01-27T08:20:05;103619.16;;;2.63;100.00
48630;BME280;34426;52.180;4.462;2024-01-27T08:22:32;103619.63;;;2.58;100.00
48630;BME280;34426;52.180;4.462;2024-01-27T08:24:57;103627.00;;;2.67;100.00
48630;BME280;34426;52.180;4.462;2024-01-27T08:27:23;103628.63;;;2.60;100.00
48630;BME280;34426;52.180;4.462;2024-01-27T08:29:48;103639.81;;;2.68;100.00
48630;BME280;34426;52.180;4.462;2024-01-27T08:32:14;103640.97;;;2.76;100.00
48630;BME280;34426;52.180;4.462;2024-01-27T08:34:39;103640.38;;;2.82;100.00
48630;BME280;34426;52.180;4.462;2024-01-27T08:37:14;103635.72;;;2.92;100.00
48630;BME280;34426;52.180;4.462;2024-01-27T08:39:41;103638.91;;;2.97;100.00
48630;BME280;34426;52.180;4.462;2024-01-27T08:42:07;103643.56;;;2.96;100.00
48630;BME280;34426;52.180;4.462;2024-01-27T08:44:32;103633.38;;;2.97;100.00
48630;BME280;34426;52.180;4.462;2024-01-27T08:46:58;103638.31;;;3.03;100.00
48630;BME280;34426;52.180;4.462;2024-01-27T08:49:23;103637.69;;;3.09;100.00
48630;BME280;34426;52.180;4.462;2024-01-27T08:51:49;103643.47;;;3.16;100.00
48630;BME280;34426;52.180;4.462;2024-01-27T08:54:14;103637.50;;;3.20;100.00
48630;BME280;34426;52.180;4.462;2024-01-27T08:56:41;103641.00;;;3.22;100.00
48630;BME280;34426;52.180;4.462;2024-01-27T08:59:06;103643.75;;;3.22;100.00
48630;BME280;34426;52.180;4.462;2024-01-27T09:01:32;103635.56;;;3.30;100.00
48630;BME280;34426;52.180;4.462;2024-01-27T09:03:57;103640.38;;;3.28;100.00
48630;BME280;34426;52.180;4.462;2024-01-27T09:06:23;103646.75;;;3.39;100.00
48630;BME280;34426;52.180;4.462;2024-01-27T09:08:48;103644.88;;;3.39;100.00
48630;BME280;34426;52.180;4.462;2024-01-27T09:11:14;103650.66;;;3.46;100.00
48630;BME280;34426;52.180;4.462;2024-01-27T09:13:41;103651.53;;;3.46;100.00
48630;BME280;34426;52.180;4.462;2024-01-27T09:16:06;103655.72;;;3.50;100.00
48630;BME280;34426;52.180;4.462;2024-01-27T09:18:32;103657.00;;;3.56;100.00
48630;BME280;34426;52.180;4.462;2024-01-27T09:20:57;103661.19;;;3.60;100.00
48630;BME280;34426;52.180;4.462;2024-01-27T09:23:23;103662.63;;;3.64;100.00
48630;BME280;34426;52.180;4.462;2024-01-27T09:25:48;103655.78;;;3.68;100.00
48630;BME280;34426;52.180;4.462;2024-01-27T09:28:14;103662.44;;;3.75;100.00
48630;BME280;34426;52.180;4.462;2024-01-27T09:30:40;103664.91;;;3.78;100.00
48630;BME280;34426;52.180;4.462;2024-01-27T09:33:06;103654.84;;;3.77;100.00
48630;BME280;34426;52.180;4.462;2024-01-27T09:35:31;103657.16;;;3.82;100.00
48630;BME280;34426;52.180;4.462;2024-01-27T09:37:57;103664.00;;;3.87;100.00
48630;BME280;34426;52.180;4.462;2024-01-27T09:40:22;103666.75;;;3.87;100.00
48630;BME280;34426;52.180;4.462;2024-01-27T09:42:50;103667.84;;;3.94;100.00
48630;BME280;34426;52.180;4.462;2024-01-27T09:45:16;103665.50;;;3.99;100.00
48630;BME280;34426;52.180;4.462;2024-01-27T09:47:44;103674.25;;;3.95;100.00
48630;BME280;34426;52.180;4.462;2024-01-27T09:50:11;103673.63;;;4.01;100.00
48630;BME280;34426;52.180;4.462;2024-01-27T09:52:36;103676.25;;;4.03;100.00
48630;BME280;34426;52.180;4.462;2024-01-27T09:55:02;103679.34;;;3.99;100.00
48630;BME280;34426;52.180;4.462;2024-01-27T09:57:28;103680.78;;;4.04;100.00
48630;BME280;34426;52.180;4.462;2024-01-27T09:59:55;103687.13;;;4.14;100.00
48630;BME280;34426;52.180;4.462;2024-01-27T10:02:23;103693.63;;;4.22;100.00
48630;BME280;34426;52.180;4.462;2024-01-27T10:04:51;103689.09;;;4.39;100.00
48630;BME280;34426;52.180;4.462;2024-01-27T10:07:16;103681.75;;;4.48;100.00
48630;BME280;34426;52.180;4.462;2024-01-27T10:09:42;103692.94;;;4.74;100.00
48630;BME280;34426;52.180;4.462;2024-01-27T10:12:08;103687.59;;;4.80;100.00
48630;BME280;34426;52.180;4.462;2024-01-27T10:14:38;103692.72;;;4.93;100.00
48630;BME280;34426;52.180;4.462;2024-01-27T10:17:04;103700.78;;;5.04;100.00
48630;BME280;34426;52.180;4.462;2024-01-27T10:19:29;103691.91;;;5.18;100.00
48630;BME280;34426;52.180;4.462;2024-01-27T10:22:01;103687.63;;;5.32;100.00
48630;BME280;34426;52.180;4.462;2024-01-27T10:24:26;103684.03;;;5.40;100.00
48630;BME280;34426;52.180;4.462;2024-01-27T10:26:59;103676.97;;;5.45;100.00
48630;BME280;34426;52.180;4.462;2024-01-27T10:29:24;103685.66;;;5.50;100.00
48630;BME280;34426;52.180;4.462;2024-01-27T10:31:50;103680.00;;;5.60;100.00
48630;BME280;34426;52.180;4.462;2024-01-27T10:34:19;103680.72;;;5.70;100.00
48630;BME280;34426;52.180;4.462;2024-01-27T10:36:45;103688.38;;;5.76;100.00
48630;BME280;34426;52.180;4.462;2024-01-27T10:39:19;103687.72;;;5.82;100.00
48630;BME280;34426;52.180;4.462;2024-01-27T10:41:46;103693.97;;;5.84;100.00
48630;BME280;34426;52.180;4.462;2024-01-27T10:44:14;103701.19;;;5.95;100.00
48630;BME280;34426;52.180;4.462;2024-01-27T10:46:41;103680.53;;;5.97;100.00
48630;BME280;34426;52.180;4.462;2024-01-27T10:49:10;103684.00;;;6.08;100.00
48630;BME280;34426;52.180;4.462;2024-01-27T10:51:38;103691.50;;;6.15;100.00
48630;BME280;34426;52.180;4.462;2024-01-27T10:54:10;103691.72;;;6.22;100.00
48630;BME280;34426;52.180;4.462;2024-01-27T10:56:40;103694.84;;;6.27;100.00
48630;BME280;34426;52.180;4.462;2024-01-27T10:59:09;103686.53;;;6.35;100.00
48630;BME280;34426;52.180;4.462;2024-01-27T11:01:36;103679.25;;;6.42;100.00
48630;BME280;34426;52.180;4.462;2024-01-27T11:04:03;103677.16;;;6.52;100.00
48630;BME280;34426;52.180;4.462;2024-01-27T11:06:31;103681.16;;;6.58;99.41
48630;BME280;34426;52.180;4.462;2024-01-27T11:08:57;103682.22;;;6.65;97.82
48630;BME280;34426;52.180;4.462;2024-01-27T11:11:24;103682.22;;;6.73;96.24
48630;BME280;34426;52.180;4.462;2024-01-27T11:13:51;103671.28;;;6.80;94.20
48630;BME280;34426;52.180;4.462;2024-01-27T11:16:18;103669.19;;;6.90;93.43
48630;BME280;34426;52.180;4.462;2024-01-27T11:18:44;103672.81;;;6.98;92.33
48630;BME280;34426;52.180;4.462;2024-01-27T11:21:13;103679.44;;;7.06;90.98
48630;BME280;34426;52.180;4.462;2024-01-27T11:23:38;103672.28;;;7.11;89.95
48630;BME280;34426;52.180;4.462;2024-01-27T11:26:04;103676.81;;;7.20;89.42
48630;BME280;34426;52.180;4.462;2024-01-27T11:28:30;103672.81;;;7.23;89.30
48630;BME280;34426;52.180;4.462;2024-01-27T11:30:57;103675.41;;;7.24;88.52
48630;BME280;34426;52.180;4.462;2024-01-27T11:33:24;103662.53;;;7.23;87.63
48630;BME280;34426;52.180;4.462;2024-01-27T11:35:59;103657.66;;;7.33;87.61
48630;BME280;34426;52.180;4.462;2024-01-27T11:38:25;103667.00;;;7.41;87.65
48630;BME280;34426;52.180;4.462;2024-01-27T11:40:51;103670.66;;;7.49;87.23
48630;BME280;34426;52.180;4.462;2024-01-27T11:43:16;103668.38;;;7.53;86.52
48630;BME280;34426;52.180;4.462;2024-01-27T11:45:41;103661.03;;;7.60;86.48
48630;BME280;34426;52.180;4.462;2024-01-27T11:48:09;103660.69;;;7.63;86.72
48630;BME280;34426;52.180;4.462;2024-01-27T11:50:35;103670.75;;;7.72;86.63
48630;BME280;34426;52.180;4.462;2024-01-27T11:53:01;103667.06;;;7.80;86.12
48630;BME280;34426;52.180;4.462;2024-01-27T11:55:26;103648.00;;;7.91;86.82
48630;BME280;34426;52.180;4.462;2024-01-27T11:57:52;103637.56;;;7.93;85.76
48630;BME280;34426;52.180;4.462;2024-01-27T12:00:17;103647.66;;;7.94;86.01
48630;BME280;34426;52.180;4.462;2024-01-27T12:02:43;103646.28;;;7.90;86.55
48630;BME280;34426;52.180;4.462;2024-01-27T12:05:11;103646.78;;;7.94;85.90
48630;BME280;34426;52.180;4.462;2024-01-27T12:07:36;103646.56;;;8.04;86.66
48630;BME280;34426;52.180;4.462;2024-01-27T12:10:02;103642.69;;;8.13;86.00
48630;BME280;34426;52.180;4.462;2024-01-27T12:12:28;103646.91;;;8.00;86.36
48630;BME280;34426;52.180;4.462;2024-01-27T12:14:54;103649.38;;;7.95;86.71
48630;BME280;34426;52.180;4.462;2024-01-27T12:17:20;103645.63;;;7.80;86.79
48630;BME280;34426;52.180;4.462;2024-01-27T12:19:46;103633.75;;;7.86;87.68
48630;BME280;34426;52.180;4.462;2024-01-27T12:22:21;103635.84;;;7.84;87.52
48630;BME280;34426;52.180;4.462;2024-01-27T12:24:47;103640.56;;;7.84;87.92
48630;BME280;34426;52.180;4.462;2024-01-27T12:27:12;103628.53;;;7.83;88.10
48630;BME280;34426;52.180;4.462;2024-01-27T12:29:40;103635.13;;;7.90;88.44
48630;BME280;34426;52.180;4.462;2024-01-27T12:32:06;103632.84;;;7.94;87.87
48630;BME280;34426;52.180;4.462;2024-01-27T12:34:31;103638.88;;;8.06;87.79
48630;BME280;34426;52.180;4.462;2024-01-27T12:36:57;103636.09;;;8.06;87.19
48630;BME280;34426;52.180;4.462;2024-01-27T12:39:25;103626.63;;;8.15;87.02
48630;BME280;34426;52.180;4.462;2024-01-27T12:41:51;103616.34;;;8.15;86.68
48630;BME280;34426;52.180;4.462;2024-01-27T12:44:16;103622.06;;;8.22;86.98